createdAt,value
2022-10-09T00:01:06.406Z,100.00
2022-10-09T00:03:40.652Z,100.00
2022-10-09T00:06:09.597Z,100.00
2022-10-09T00:08:41.279Z,100.00
2022-10-09T00:11:11.059Z,100.00
2022-10-09T00:13:38.246Z,100.00
2022-10-09T00:16:08.021Z,100.00
2022-10-09T00:18:35.917Z,100.00
2022-10-09T00:21:03.692Z,100.00
2022-10-09T00:23:31.814Z,100.00
2022-10-09T00:26:01.615Z,100.00
2022-10-09T00:28:30.361Z,100.00
2022-10-09T00:30:57.649Z,100.00
2022-10-09T00:33:24.719Z,100.00
2022-10-09T00:35:52.134Z,100.00
2022-10-09T00:38:18.958Z,100.00
2022-10-09T00:40:45.939Z,100.00
2022-10-09T00:43:19.598Z,100.00
2022-10-09T00:45:54.481Z,100.00
2022-10-09T00:48:23.228Z,100.00
2022-10-09T00:50:56.464Z,100.00
2022-10-09T00:53:27.145Z,100.00
2022-10-09T00:55:54.104Z,100.00
2022-10-09T00:58:22.258Z,100.00
2022-10-09T01:00:49.602Z,100.00
2022-10-09T01:03:16.803Z,100.00
2022-10-09T01:06:09.010Z,100.00
2022-10-09T01:08:45.746Z,100.00
2022-10-09T01:11:23.985Z,100.00
2022-10-09T01:14:22.846Z,100.00
2022-10-09T01:17:04.134Z,100.00
2022-10-09T01:19:31.112Z,100.00
2022-10-09T01:22:18.336Z,100.00
2022-10-09T01:24:54.784Z,100.00
2022-10-09T01:27:24.697Z,100.00
2022-10-09T01:29:57.100Z,100.00
2022-10-09T01:32:30.381Z,100.00
2022-10-09T01:34:58.587Z,100.00
2022-10-09T01:37:27.711Z,100.00
2022-10-09T01:39:54.575Z,100.00
2022-10-09T01:42:23.050Z,100.00
2022-10-09T01:44:49.905Z,100.00
2022-10-09T01:47:18.931Z,100.00
2022-10-09T01:50:01.846Z,100.00
2022-10-09T01:52:50.249Z,100.00
2022-10-09T01:55:39.258Z,100.00
2022-10-09T01:58:17.729Z,100.00
2022-10-09T02:01:07.688Z,100.00
2022-10-09T02:03:39.106Z,100.00
2022-10-09T02:06:09.645Z,100.00
2022-10-09T02:08:38.878Z,100.00
2022-10-09T02:11:06.686Z,100.00
2022-10-09T02:13:35.562Z,100.00
2022-10-09T02:16:20.910Z,100.00
2022-10-09T02:19:11.215Z,100.00
2022-10-09T02:21:42.165Z,100.00
2022-10-09T02:24:17.029Z,100.00
2022-10-09T02:26:43.796Z,100.00
2022-10-09T02:29:12.556Z,100.00
2022-10-09T02:31:42.303Z,100.00
2022-10-09T02:34:11.890Z,100.00
2022-10-09T02:36:39.994Z,100.00
2022-10-09T02:39:07.780Z,100.00
2022-10-09T02:41:35.449Z,100.00
2022-10-09T02:44:02.901Z,100.00
2022-10-09T02:46:30.435Z,100.00
2022-10-09T02:48:57.675Z,100.00
2022-10-09T02:51:25.549Z,100.00
2022-10-09T02:53:54.051Z,100.00
2022-10-09T02:56:22.368Z,100.00
2022-10-09T02:58:49.343Z,100.00
2022-10-09T03:01:16.342Z,100.00
2022-10-09T03:03:43.659Z,100.00
2022-10-09T03:06:13.893Z,100.00
2022-10-09T03:08:43.904Z,100.00
2022-10-09T03:11:12.289Z,100.00
2022-10-09T03:13:39.866Z,100.00
2022-10-09T03:16:18.458Z,100.00
2022-10-09T03:18:46.513Z,100.00
2022-10-09T03:21:24.955Z,100.00
2022-10-09T03:23:53.552Z,100.00
2022-10-09T03:26:27.641Z,100.00
2022-10-09T03:28:55.581Z,100.00
2022-10-09T03:31:50.574Z,100.00
2022-10-09T03:34:12.325Z,100.00
2022-10-09T03:36:39.711Z,100.00
2022-10-09T03:39:06.477Z,100.00
2022-10-09T03:41:33.340Z,100.00
2022-10-09T03:44:00.388Z,100.00
2022-10-09T03:46:27.236Z,100.00
2022-10-09T03:48:54.030Z,100.00
2022-10-09T03:51:21.258Z,100.00
2022-10-09T03:53:47.999Z,100.00
2022-10-09T03:56:14.757Z,100.00
2022-10-09T03:58:41.751Z,100.00
2022-10-09T04:01:08.686Z,100.00
2022-10-09T04:03:35.633Z,100.00
2022-10-09T04:06:02.648Z,100.00
2022-10-09T04:08:29.425Z,100.00
2022-10-09T04:10:58.081Z,100.00
2022-10-09T04:13:25.187Z,100.00
2022-10-09T04:15:55.900Z,100.00
2022-10-09T04:18:23.282Z,100.00
2022-10-09T04:20:55.249Z,100.00
2022-10-09T04:23:25.204Z,100.00
2022-10-09T04:25:54.952Z,100.00
2022-10-09T04:28:23.562Z,100.00
2022-10-09T04:30:51.764Z,100.00
2022-10-09T04:33:19.203Z,100.00
2022-10-09T04:35:50.630Z,100.00
2022-10-09T04:38:17.450Z,100.00
2022-10-09T04:40:44.455Z,100.00
2022-10-09T04:43:11.224Z,100.00
2022-10-09T04:45:41.420Z,100.00
2022-10-09T04:48:08.433Z,100.00
2022-10-09T04:50:38.912Z,100.00
2022-10-09T04:53:05.710Z,100.00
2022-10-09T04:55:32.760Z,100.00
2022-10-09T04:57:59.605Z,100.00
2022-10-09T05:00:26.387Z,100.00
2022-10-09T05:02:53.397Z,100.00
2022-10-09T05:05:20.118Z,100.00
2022-10-09T05:07:46.863Z,100.00
2022-10-09T05:10:13.894Z,100.00
2022-10-09T05:12:40.717Z,100.00
2022-10-09T05:15:07.758Z,100.00
2022-10-09T05:17:34.782Z,100.00
2022-10-09T05:20:01.622Z,100.00
2022-10-09T05:22:28.367Z,100.00
2022-10-09T05:24:55.310Z,100.00
2022-10-09T05:27:22.198Z,100.00
2022-10-09T05:29:48.956Z,100.00
2022-10-09T05:32:15.983Z,100.00
2022-10-09T05:34:42.793Z,100.00
2022-10-09T05:37:09.665Z,100.00
2022-10-09T05:39:38.360Z,100.00
2022-10-09T05:42:05.419Z,100.00
2022-10-09T05:44:32.359Z,100.00
2022-10-09T05:46:59.291Z,100.00
2022-10-09T05:49:26.027Z,100.00
2022-10-09T05:51:54.146Z,100.00
2022-10-09T05:54:21.202Z,100.00
2022-10-09T05:56:48.051Z,100.00
2022-10-09T05:59:19.952Z,100.00
2022-10-09T06:01:50.513Z,100.00
2022-10-09T06:04:20.766Z,100.00
2022-10-09T06:06:48.819Z,100.00
2022-10-09T06:09:18.431Z,100.00
2022-10-09T06:11:45.888Z,100.00
2022-10-09T06:14:13.550Z,100.00
2022-10-09T06:16:42.464Z,100.00
2022-10-09T06:19:12.293Z,100.00
2022-10-09T06:21:39.406Z,100.00
2022-10-09T06:24:07.248Z,100.00
2022-10-09T06:26:34.746Z,100.00
2022-10-09T06:29:02.695Z,100.00
2022-10-09T06:31:32.983Z,100.00
2022-10-09T06:34:01.047Z,100.00
2022-10-09T06:36:30.714Z,100.00
2022-10-09T06:39:00.523Z,100.00
2022-10-09T06:41:28.722Z,100.00
2022-10-09T06:43:58.295Z,100.00
2022-10-09T06:46:34.669Z,100.00
2022-10-09T06:49:02.424Z,100.00
2022-10-09T06:51:30.198Z,100.00
2022-10-09T06:53:59.809Z,99.89
2022-10-09T06:56:29.112Z,100.00
2022-10-09T06:58:56.475Z,100.00
2022-10-09T07:01:27.011Z,100.00
2022-10-09T07:03:56.838Z,100.00
2022-10-09T07:06:26.318Z,96.88
2022-10-09T07:08:59.721Z,93.65
2022-10-09T07:11:32.469Z,92.44
2022-10-09T07:14:02.097Z,87.11
2022-10-09T07:16:38.828Z,87.49
2022-10-09T07:19:11.352Z,88.32
2022-10-09T07:21:41.436Z,89.05
2022-10-09T07:24:08.554Z,85.56
2022-10-09T07:26:37.990Z,77.51
2022-10-09T07:29:07.397Z,73.27
2022-10-09T07:31:34.165Z,72.07
2022-10-09T07:34:01.462Z,69.97
2022-10-09T07:36:28.545Z,67.26
2022-10-09T07:38:57.264Z,68.80
2022-10-09T07:41:26.274Z,69.89
2022-10-09T07:43:53.559Z,69.66
2022-10-09T07:46:22.417Z,73.37
2022-10-09T07:48:49.341Z,75.25
2022-10-09T07:51:27.697Z,76.58
2022-10-09T07:53:54.707Z,79.26
2022-10-09T07:56:24.827Z,73.02
2022-10-09T07:58:54.106Z,67.44
2022-10-09T08:01:21.575Z,67.61
2022-10-09T08:03:49.285Z,65.99
2022-10-09T08:06:17.280Z,68.13
2022-10-09T08:08:45.038Z,70.11
2022-10-09T08:11:15.030Z,73.35
2022-10-09T08:13:43.047Z,76.71
2022-10-09T08:16:10.946Z,74.65
2022-10-09T08:18:38.150Z,76.18
2022-10-09T08:21:08.289Z,78.57
2022-10-09T08:23:35.721Z,70.72
2022-10-09T08:26:03.639Z,70.27
2022-10-09T08:28:30.769Z,59.95
2022-10-09T08:30:57.597Z,58.76
2022-10-09T08:33:26.040Z,53.33
2022-10-09T08:35:54.426Z,50.98
2022-10-09T08:38:45.561Z,46.26
2022-10-09T08:41:39.509Z,44.70
2022-10-09T08:44:16.985Z,47.96
2022-10-09T08:47:02.766Z,48.23
2022-10-09T08:49:32.331Z,46.05
2022-10-09T08:52:14.144Z,44.97
2022-10-09T08:54:41.350Z,47.12
2022-10-09T08:57:14.497Z,48.49
2022-10-09T08:59:41.802Z,48.90
2022-10-09T09:02:17.434Z,50.65
2022-10-09T09:05:02.970Z,53.12
2022-10-09T09:07:46.024Z,50.91
2022-10-09T09:10:34.303Z,50.82
2022-10-09T09:13:26.946Z,47.02
2022-10-09T09:16:04.626Z,43.55
2022-10-09T09:18:53.625Z,40.95
2022-10-09T09:21:42.551Z,38.56
2022-10-09T09:24:38.434Z,39.56
2022-10-09T09:27:14.070Z,41.67
2022-10-09T09:29:47.065Z,40.50
2022-10-09T09:32:33.774Z,38.04
2022-10-09T09:35:46.914Z,37.39
2022-10-09T09:38:14.772Z,39.71
2022-10-09T09:40:46.825Z,40.85
2022-10-09T09:43:25.469Z,36.10
2022-10-09T09:45:54.648Z,36.22
2022-10-09T09:48:41.032Z,36.23
2022-10-09T09:51:27.954Z,36.96
2022-10-09T09:54:15.226Z,38.27
2022-10-09T09:59:36.265Z,42.42
2022-10-09T10:02:26.286Z,44.76
2022-10-09T10:04:55.458Z,45.67
2022-10-09T10:07:38.970Z,38.98
2022-10-09T10:10:25.859Z,36.88
2022-10-09T10:12:59.542Z,35.98
2022-10-09T10:15:31.844Z,33.47
2022-10-09T10:18:08.335Z,34.34
2022-10-09T10:21:03.373Z,32.35
2022-10-09T10:23:33.852Z,34.27
2022-10-09T10:26:05.583Z,36.91
2022-10-09T10:28:43.670Z,36.87
2022-10-09T10:31:19.561Z,35.87
2022-10-09T10:33:53.337Z,34.38
2022-10-09T10:36:20.154Z,31.56
2022-10-09T10:38:57.411Z,32.39
2022-10-09T10:41:42.559Z,30.30
2022-10-09T10:44:50.158Z,31.32
2022-10-09T10:47:24.214Z,29.89
2022-10-09T10:49:51.242Z,30.77
2022-10-09T10:52:30.311Z,32.44
2022-10-09T10:55:34.724Z,33.27
2022-10-09T10:58:24.639Z,33.56
2022-10-09T11:01:13.897Z,36.15
2022-10-09T11:03:52.870Z,35.49
2022-10-09T11:06:26.138Z,34.08
2022-10-09T11:09:06.000Z,33.05
2022-10-09T11:11:46.226Z,32.40
2022-10-09T11:14:20.546Z,30.95
2022-10-09T11:16:58.552Z,31.33
2022-10-09T11:19:51.173Z,31.93
2022-10-09T11:22:30.070Z,28.83
2022-10-09T11:25:15.112Z,27.85
2022-10-09T11:27:51.979Z,29.06
2022-10-09T11:30:19.189Z,29.41
2022-10-09T11:33:17.271Z,29.18
2022-10-09T11:35:57.985Z,27.35
2022-10-09T11:38:39.379Z,26.95
2022-10-09T11:41:07.649Z,28.25
2022-10-09T11:43:43.787Z,28.07
2022-10-09T11:46:19.733Z,29.30
2022-10-09T11:49:16.283Z,29.73
2022-10-09T11:51:55.116Z,28.88
2022-10-09T11:54:24.126Z,29.03
2022-10-09T11:56:54.374Z,30.51
2022-10-09T11:59:30.879Z,32.45
2022-10-09T12:02:00.277Z,34.60
2022-10-09T12:07:36.742Z,36.74
2022-10-09T12:10:21.337Z,37.91
2022-10-09T12:13:30.143Z,39.50
2022-10-09T12:15:59.116Z,41.06
2022-10-09T12:18:31.281Z,41.43
2022-10-09T12:21:00.490Z,43.70
2022-10-09T12:23:32.310Z,42.51
2022-10-09T12:26:01.716Z,42.68
2022-10-09T12:28:39.089Z,43.65
2022-10-09T12:31:18.451Z,44.97
2022-10-09T12:33:51.623Z,45.00
2022-10-09T12:36:29.901Z,44.88
2022-10-09T12:38:57.230Z,44.76
2022-10-09T12:41:29.522Z,40.58
2022-10-09T12:43:57.706Z,37.05
2022-10-09T12:46:37.160Z,35.82
2022-10-09T12:49:14.986Z,36.63
2022-10-09T12:51:42.159Z,38.60
2022-10-09T12:54:10.131Z,39.76
2022-10-09T12:56:38.828Z,40.31
2022-10-09T12:59:11.867Z,42.81
2022-10-09T13:01:40.464Z,41.64
2022-10-09T13:04:10.975Z,39.48
2022-10-09T13:06:46.322Z,37.68
2022-10-09T13:09:27.998Z,36.58
2022-10-09T13:12:19.676Z,35.73
2022-10-09T13:14:59.742Z,36.16
2022-10-09T13:17:38.831Z,35.42
2022-10-09T13:20:14.726Z,35.00
2022-10-09T13:22:52.881Z,35.93
2022-10-09T13:25:20.090Z,36.65
2022-10-09T13:27:47.184Z,36.76
2022-10-09T13:30:14.125Z,37.26
2022-10-09T13:32:41.096Z,36.85
2022-10-09T13:35:08.234Z,37.04
2022-10-09T13:37:35.231Z,37.12
2022-10-09T13:40:02.338Z,36.93
2022-10-09T13:42:38.577Z,37.97
2022-10-09T13:45:06.312Z,39.01
2022-10-09T13:47:33.303Z,39.92
2022-10-09T13:50:00.151Z,41.55
2022-10-09T13:52:27.193Z,43.87
2022-10-09T13:54:53.972Z,45.00
2022-10-09T13:57:20.821Z,46.22
2022-10-09T13:59:47.804Z,45.90
2022-10-09T14:02:14.716Z,46.90
2022-10-09T14:04:41.742Z,47.08
2022-10-09T14:07:09.104Z,47.07
2022-10-09T14:09:36.063Z,47.70
2022-10-09T14:12:02.953Z,49.26
2022-10-09T14:14:30.023Z,50.23
2022-10-09T14:16:56.870Z,51.79
2022-10-09T14:19:27.988Z,51.97
2022-10-09T14:21:56.450Z,52.31
2022-10-09T14:24:24.381Z,51.17
2022-10-09T14:26:51.917Z,51.32
2022-10-09T14:29:19.597Z,52.60
2022-10-09T14:31:46.502Z,54.13
2022-10-09T14:34:14.791Z,54.53
2022-10-09T14:36:42.390Z,55.51
2022-10-09T14:39:09.320Z,55.59
2022-10-09T14:41:37.975Z,55.93
2022-10-09T14:44:05.839Z,56.95
2022-10-09T14:46:34.087Z,57.32
2022-10-09T14:49:07.400Z,57.70
2022-10-09T14:51:40.382Z,58.55
2022-10-09T14:54:08.199Z,59.34
2022-10-09T14:56:36.272Z,60.40
2022-10-09T14:59:05.864Z,61.84
2022-10-09T15:01:34.142Z,63.33
2022-10-09T15:04:06.125Z,64.85
2022-10-09T15:06:33.815Z,65.46
2022-10-09T15:09:05.559Z,66.15
2022-10-09T15:11:34.674Z,67.35
2022-10-09T15:14:02.019Z,67.99
2022-10-09T15:16:28.827Z,68.95
2022-10-09T15:18:56.296Z,70.50
2022-10-09T15:21:28.690Z,71.12
2022-10-09T15:23:57.360Z,71.94
2022-10-09T15:26:25.640Z,73.49
2022-10-09T15:28:52.585Z,73.79
2022-10-09T15:31:40.517Z,75.59
2022-10-09T15:34:09.858Z,75.28
2022-10-09T15:36:38.517Z,76.12
2022-10-09T15:39:07.540Z,76.62
2022-10-09T15:41:37.491Z,78.54
2022-10-09T15:44:06.740Z,79.94
2022-10-09T15:46:34.138Z,81.35
2022-10-09T15:49:00.891Z,83.26
2022-10-09T15:51:29.376Z,84.39
2022-10-09T15:53:58.881Z,85.91
2022-10-09T15:56:25.566Z,86.95
2022-10-09T15:58:54.554Z,86.92
2022-10-09T16:01:21.906Z,87.36
2022-10-09T16:03:49.134Z,88.55
2022-10-09T16:06:19.359Z,89.80
2022-10-09T16:08:47.369Z,91.84
2022-10-09T16:11:17.972Z,93.13
2022-10-09T16:13:48.183Z,91.70
2022-10-09T16:16:18.964Z,91.37
2022-10-09T16:18:46.530Z,91.50
2022-10-09T16:21:16.643Z,92.39
2022-10-09T16:23:44.187Z,92.70
2022-10-09T16:26:13.758Z,93.33
2022-10-09T16:28:40.905Z,93.73
2022-10-09T16:31:07.728Z,94.07
2022-10-09T16:33:34.575Z,94.50
2022-10-09T16:36:11.869Z,94.69
2022-10-09T16:38:39.038Z,95.44
2022-10-09T16:41:17.832Z,96.35
2022-10-09T16:43:46.646Z,97.61
2022-10-09T16:46:13.773Z,97.57
2022-10-09T16:48:40.849Z,97.70
2022-10-09T16:51:12.635Z,98.33
2022-10-09T16:53:40.507Z,100.00
2022-10-09T16:56:15.275Z,100.00
2022-10-09T16:58:43.475Z,100.00
2022-10-09T17:01:11.069Z,100.00
2022-10-09T17:03:42.531Z,100.00
2022-10-09T17:06:11.732Z,100.00
2022-10-09T17:08:39.483Z,100.00
2022-10-09T17:11:08.777Z,100.00
2022-10-09T17:13:36.693Z,100.00
2022-10-09T17:16:15.668Z,100.00
2022-10-09T17:18:45.345Z,100.00
2022-10-09T17:21:13.283Z,100.00
2022-10-09T17:23:40.419Z,100.00
2022-10-09T17:26:13.687Z,100.00
2022-10-09T17:28:42.120Z,100.00
2022-10-09T17:31:11.243Z,100.00
2022-10-09T17:33:46.063Z,100.00
2022-10-09T17:36:16.397Z,100.00
2022-10-09T17:38:44.036Z,100.00
2022-10-09T17:41:13.218Z,100.00
2022-10-09T17:43:40.337Z,100.00
2022-10-09T17:46:07.601Z,100.00
2022-10-09T17:48:35.769Z,100.00
2022-10-09T17:51:04.454Z,100.00
2022-10-09T17:53:31.968Z,100.00
2022-10-09T17:56:03.858Z,100.00
2022-10-09T17:58:31.061Z,100.00
2022-10-09T18:00:58.004Z,100.00
2022-10-09T18:03:25.944Z,100.00
2022-10-09T18:05:52.910Z,100.00
2022-10-09T18:08:20.005Z,100.00
2022-10-09T18:10:47.105Z,100.00
2022-10-09T18:13:14.340Z,100.00
2022-10-09T18:15:43.317Z,100.00
2022-10-09T18:18:11.166Z,100.00
2022-10-09T18:20:39.951Z,100.00
2022-10-09T18:23:08.031Z,100.00
2022-10-09T18:25:40.127Z,100.00
2022-10-09T18:28:07.219Z,100.00
2022-10-09T18:30:34.322Z,100.00
2022-10-09T18:33:01.282Z,100.00
2022-10-09T18:35:30.419Z,100.00
2022-10-09T18:37:57.443Z,100.00
2022-10-09T18:40:24.260Z,100.00
2022-10-09T18:42:52.143Z,100.00
2022-10-09T18:45:19.499Z,100.00
2022-10-09T18:47:46.834Z,100.00
2022-10-09T18:50:15.368Z,100.00
2022-10-09T18:52:43.643Z,100.00
2022-10-09T18:55:12.863Z,100.00
2022-10-09T18:57:41.452Z,100.00
2022-10-09T19:00:09.453Z,100.00
2022-10-09T19:02:36.553Z,100.00
2022-10-09T19:05:04.110Z,100.00
2022-10-09T19:07:31.266Z,100.00
2022-10-09T19:09:58.126Z,100.00
2022-10-09T19:12:26.251Z,100.00
2022-10-09T19:14:53.062Z,100.00
2022-10-09T19:17:20.066Z,100.00
2022-10-09T19:19:46.896Z,100.00
2022-10-09T19:22:16.609Z,100.00
2022-10-09T19:24:44.376Z,100.00
2022-10-09T19:27:11.453Z,100.00
2022-10-09T19:29:38.381Z,100.00
2022-10-09T19:32:05.459Z,100.00
2022-10-09T19:34:32.238Z,100.00
2022-10-09T19:36:59.336Z,100.00
2022-10-09T19:39:26.324Z,100.00
2022-10-09T19:41:53.727Z,100.00
2022-10-09T19:44:21.577Z,100.00
2022-10-09T19:46:48.740Z,100.00
2022-10-09T19:49:15.895Z,100.00
2022-10-09T19:51:42.990Z,100.00
2022-10-09T19:54:10.214Z,100.00
2022-10-09T19:56:37.861Z,100.00
2022-10-09T19:59:07.087Z,100.00
2022-10-09T20:01:35.968Z,100.00
2022-10-09T20:04:07.791Z,100.00
2022-10-09T20:06:37.805Z,100.00
2022-10-09T20:09:06.302Z,100.00
2022-10-09T20:11:34.871Z,100.00
2022-10-09T20:14:02.131Z,100.00
2022-10-09T20:16:32.173Z,100.00
2022-10-09T20:19:04.054Z,100.00
2022-10-09T20:21:32.976Z,100.00
2022-10-09T20:24:01.384Z,100.00
2022-10-09T20:26:29.860Z,100.00
2022-10-09T20:28:57.344Z,100.00
2022-10-09T20:31:26.329Z,100.00
2022-10-09T20:33:53.816Z,100.00
2022-10-09T20:36:27.867Z,100.00
2022-10-09T20:38:56.972Z,100.00
2022-10-09T20:41:24.951Z,100.00
2022-10-09T20:43:53.481Z,100.00
2022-10-09T20:46:21.398Z,100.00
2022-10-09T20:48:48.573Z,100.00
2022-10-09T20:51:16.565Z,100.00
2022-10-09T20:53:44.649Z,100.00
2022-10-09T20:56:14.710Z,100.00
2022-10-09T20:58:41.918Z,100.00
2022-10-09T21:01:11.027Z,100.00
2022-10-09T21:03:39.223Z,100.00
2022-10-09T21:06:08.643Z,100.00
2022-10-09T21:08:36.193Z,100.00
2022-10-09T21:11:08.484Z,100.00
2022-10-09T21:13:36.294Z,100.00
2022-10-09T21:16:12.432Z,100.00
2022-10-09T21:18:39.843Z,100.00
2022-10-09T21:21:09.983Z,100.00
2022-10-09T21:23:37.335Z,100.00
2022-10-09T21:26:04.263Z,100.00
2022-10-09T21:28:31.961Z,100.00
2022-10-09T21:30:58.730Z,100.00
2022-10-09T21:33:25.781Z,100.00
2022-10-09T21:35:55.417Z,100.00
2022-10-09T21:38:23.810Z,100.00
2022-10-09T21:40:50.880Z,100.00
2022-10-09T21:43:18.673Z,100.00
2022-10-09T21:45:49.516Z,100.00
2022-10-09T21:48:17.063Z,100.00
2022-10-09T21:50:45.085Z,100.00
2022-10-09T21:53:12.903Z,100.00
2022-10-09T21:55:39.867Z,100.00
2022-10-09T21:58:07.225Z,100.00
2022-10-09T22:00:34.303Z,100.00
2022-10-09T22:03:01.102Z,100.00
2022-10-09T22:05:28.021Z,100.00
2022-10-09T22:07:55.065Z,100.00
2022-10-09T22:10:21.899Z,100.00
2022-10-09T22:12:49.039Z,100.00
2022-10-09T22:15:16.294Z,100.00
2022-10-09T22:17:43.053Z,100.00
2022-10-09T22:20:10.141Z,100.00
2022-10-09T22:22:36.966Z,100.00
2022-10-09T22:25:04.602Z,100.00
2022-10-09T22:27:31.370Z,100.00
2022-10-09T22:29:58.380Z,100.00
2022-10-09T22:32:25.170Z,100.00
2022-10-09T22:34:52.306Z,100.00
2022-10-09T22:37:19.150Z,100.00
2022-10-09T22:39:46.296Z,100.00
2022-10-09T22:42:13.217Z,100.00
2022-10-09T22:44:40.223Z,100.00
2022-10-09T22:47:06.991Z,100.00
2022-10-09T22:49:34.096Z,100.00
2022-10-09T22:52:00.877Z,100.00
2022-10-09T22:54:27.913Z,100.00
2022-10-09T22:56:54.826Z,100.00
2022-10-09T22:59:21.892Z,100.00
2022-10-09T23:01:53.450Z,100.00
2022-10-09T23:04:22.082Z,100.00
2022-10-09T23:06:55.519Z,100.00
2022-10-09T23:09:26.287Z,100.00
2022-10-09T23:11:53.415Z,100.00
2022-10-09T23:14:20.508Z,100.00
2022-10-09T23:16:47.642Z,100.00
2022-10-09T23:19:15.290Z,100.00
2022-10-09T23:21:43.308Z,100.00
2022-10-09T23:24:12.577Z,100.00
2022-10-09T23:26:39.315Z,100.00
2022-10-09T23:29:14.512Z,100.00
2022-10-09T23:31:41.624Z,100.00
2022-10-09T23:34:08.668Z,100.00
2022-10-09T23:36:35.642Z,100.00
2022-10-09T23:39:04.338Z,100.00
2022-10-09T23:41:31.108Z,100.00
2022-10-09T23:43:58.287Z,100.00
2022-10-09T23:46:28.651Z,100.00
2022-10-09T23:48:56.127Z,100.00
2022-10-09T23:51:24.599Z,100.00
2022-10-09T23:53:51.621Z,100.00
2022-10-09T23:56:24.531Z,100.00
2022-10-09T23:58:52.739Z,100.00
